createdAt,value
2019-06-08T00:02:09.566Z,22.17
2019-06-08T00:04:40.629Z,18.95
2019-06-08T00:07:10.352Z,21.42
2019-06-08T00:12:12.965Z,20.23
2019-06-08T00:14:42.890Z,20.27
2019-06-08T00:17:27.330Z,26.77
2019-06-08T00:19:43.933Z,19.87
2019-06-08T00:22:15.716Z,19.77
2019-06-08T00:24:45.760Z,19.77
2019-06-08T00:27:16.024Z,18.17
2019-06-08T00:29:45.865Z,20.35
2019-06-08T00:32:16.148Z,26.23
2019-06-08T00:34:47.577Z,24.95
2019-06-08T00:37:20.820Z,24.15
2019-06-08T00:39:52.310Z,21.12
2019-06-08T00:42:23.742Z,22.93
2019-06-08T00:44:53.532Z,21.17
2019-06-08T00:47:24.609Z,21.30
2019-06-08T00:49:54.484Z,19.67
2019-06-08T00:52:25.556Z,22.85
2019-06-08T00:54:55.426Z,21.95
2019-06-08T00:57:26.020Z,18.67
2019-06-08T00:59:55.948Z,18.48
2019-06-08T01:02:26.796Z,19.20
2019-06-08T01:04:56.641Z,19.00
2019-06-08T01:07:26.557Z,19.42
2019-06-08T01:09:56.295Z,19.82
2019-06-08T01:14:54.969Z,23.37
2019-06-08T01:17:27.437Z,23.57
2019-06-08T01:19:57.663Z,24.02
2019-06-08T01:22:27.799Z,24.92
2019-06-08T01:24:57.726Z,22.20
2019-06-08T01:27:28.202Z,28.90
2019-06-08T01:29:57.946Z,23.05
2019-06-08T01:32:29.008Z,24.77
2019-06-08T01:35:00.285Z,25.45
2019-06-08T01:37:31.119Z,21.73
2019-06-08T01:40:01.203Z,22.55
2019-06-08T01:42:31.877Z,22.80
2019-06-08T01:45:01.889Z,23.65
2019-06-08T01:47:32.970Z,25.30
2019-06-08T01:50:02.842Z,24.67
2019-06-08T01:55:02.743Z,22.70
2019-06-08T01:57:33.839Z,21.40
2019-06-08T02:00:29.515Z,25.72
2019-06-08T02:02:39.215Z,22.20
2019-06-08T02:07:37.792Z,29.57
2019-06-08T02:12:37.186Z,23.73
2019-06-08T02:15:08.231Z,26.35
2019-06-08T02:17:38.038Z,29.35
2019-06-08T02:20:08.361Z,21.62
2019-06-08T02:22:39.391Z,21.97
2019-06-08T02:25:10.591Z,24.50
2019-06-08T02:27:40.504Z,24.40
2019-06-08T02:30:12.191Z,22.15
2019-06-08T02:32:42.543Z,24.32
2019-06-08T02:35:12.728Z,26.35
2019-06-08T02:37:42.592Z,24.75
2019-06-08T02:40:13.846Z,22.25
2019-06-08T02:42:43.791Z,20.62
2019-06-08T02:45:14.117Z,23.20
2019-06-08T02:47:43.972Z,26.80
2019-06-08T02:52:44.848Z,21.02
2019-06-08T02:55:14.548Z,21.73
2019-06-08T03:00:16.535Z,19.98
2019-06-08T03:02:47.558Z,27.50
2019-06-08T03:05:18.949Z,21.95
2019-06-08T03:07:51.665Z,27.62
2019-06-08T03:10:21.392Z,26.30
2019-06-08T03:15:33.826Z,26.95
2019-06-08T03:18:02.175Z,27.02
2019-06-08T03:20:33.375Z,26.75
2019-06-08T03:23:03.275Z,28.65
2019-06-08T03:25:41.639Z,31.75
2019-06-08T03:28:04.455Z,29.10
2019-06-08T03:33:06.222Z,29.23
2019-06-08T03:35:46.490Z,29.37
2019-06-08T03:38:08.831Z,26.52
2019-06-08T03:43:09.856Z,29.12
2019-06-08T03:45:40.788Z,28.85
2019-06-08T03:48:11.013Z,34.75
2019-06-08T03:50:42.060Z,28.27
2019-06-08T03:53:12.076Z,24.02
2019-06-08T03:55:45.025Z,31.93
2019-06-08T03:58:14.450Z,27.40
2019-06-08T04:03:15.897Z,25.90
2019-06-08T04:05:46.545Z,26.07
2019-06-08T04:08:18.154Z,25.88
2019-06-08T04:10:47.723Z,26.55
2019-06-08T04:13:18.644Z,24.52
2019-06-08T04:15:50.193Z,23.62
2019-06-08T04:18:21.502Z,23.73
2019-06-08T04:20:52.803Z,27.73
2019-06-08T04:23:22.564Z,32.35
2019-06-08T04:25:52.406Z,29.90
2019-06-08T04:28:22.106Z,25.57
2019-06-08T04:33:20.605Z,26.05
2019-06-08T04:35:50.857Z,33.42
2019-06-08T04:38:28.510Z,29.46
2019-06-08T04:43:27.232Z,25.45
2019-06-08T04:48:26.119Z,31.17
2019-06-08T04:50:55.842Z,26.48
2019-06-08T04:53:25.540Z,26.68
2019-06-08T04:58:24.053Z,27.37
2019-06-08T05:00:53.714Z,27.10
2019-06-08T05:03:24.378Z,29.02
2019-06-08T05:05:54.123Z,28.15
2019-06-08T05:10:52.605Z,26.07
2019-06-08T05:13:22.183Z,29.85
2019-06-08T05:15:51.988Z,33.00
2019-06-08T05:18:21.619Z,26.33
2019-06-08T05:20:51.583Z,27.80
2019-06-08T05:23:21.439Z,33.23
2019-06-08T05:28:19.942Z,25.75
2019-06-08T05:33:19.317Z,27.10
2019-06-08T05:38:19.515Z,26.97
2019-06-08T05:43:19.726Z,29.05
2019-06-08T05:45:49.932Z,24.95
2019-06-08T05:48:19.871Z,27.48
2019-06-08T05:53:28.656Z,23.65
2019-06-08T05:58:27.473Z,27.17
2019-06-08T06:00:57.247Z,25.43
2019-06-08T06:05:55.585Z,26.70
2019-06-08T06:08:25.473Z,26.23
2019-06-08T06:10:55.195Z,22.70
2019-06-08T06:15:55.200Z,25.02
2019-06-08T06:18:28.366Z,23.67
2019-06-08T06:21:10.559Z,28.52
2019-06-08T06:23:29.580Z,24.00
2019-06-08T06:25:59.283Z,21.97
2019-06-08T06:30:58.006Z,18.98
2019-06-08T06:35:57.060Z,19.00
2019-06-08T06:38:30.775Z,16.52
2019-06-08T06:41:00.566Z,19.50
2019-06-08T06:43:30.334Z,17.40
2019-06-08T06:46:00.095Z,22.85
2019-06-08T06:48:29.891Z,20.52
2019-06-08T06:50:59.590Z,19.27
2019-06-08T06:53:29.207Z,16.15
2019-06-08T06:58:27.703Z,15.47
2019-06-08T07:03:26.020Z,15.10
2019-06-08T07:08:24.272Z,17.32
2019-06-08T07:10:55.067Z,15.40
2019-06-08T07:13:25.865Z,18.75
2019-06-08T07:15:58.159Z,19.48
2019-06-08T07:18:26.682Z,16.17
2019-06-08T07:23:25.131Z,21.40
2019-06-08T07:28:24.142Z,22.80
2019-06-08T07:33:22.531Z,20.27
2019-06-08T07:35:53.270Z,22.30
2019-06-08T07:38:22.998Z,21.48
2019-06-08T07:43:21.505Z,26.47
2019-06-08T07:48:19.873Z,18.80
2019-06-08T07:53:19.185Z,23.75
2019-06-08T07:58:19.964Z,18.85
2019-06-08T08:03:19.978Z,18.57
2019-06-08T08:05:50.384Z,22.90
2019-06-08T08:08:20.121Z,21.42
2019-06-08T08:13:18.424Z,20.47
2019-06-08T08:15:49.070Z,21.65
2019-06-08T08:18:18.689Z,23.52
2019-06-08T08:23:18.614Z,22.55
2019-06-08T08:51:03.706Z,22.20
2019-06-08T09:53:49.638Z,18.27
2019-06-08T10:34:27.314Z,16.67
2019-06-08T10:37:06.423Z,16.42
2019-06-08T10:39:30.526Z,16.12
2019-06-08T10:42:03.168Z,21.17
2019-06-08T10:44:33.380Z,19.37
2019-06-08T10:47:04.925Z,22.65
2019-06-08T10:49:38.266Z,17.95
2019-06-08T10:52:12.017Z,13.93
2019-06-08T10:54:42.152Z,15.75
2019-06-08T11:00:13.909Z,14.30
2019-06-08T11:02:50.620Z,13.85
2019-06-08T11:05:52.085Z,16.37
2019-06-08T11:08:14.667Z,16.27
2019-06-08T11:14:41.374Z,20.57
2019-06-08T11:17:33.347Z,21.97
2019-06-08T11:20:11.853Z,15.68
2019-06-08T11:52:51.216Z,16.20
2019-06-08T11:58:20.295Z,13.80
2019-06-08T12:38:54.312Z,21.05
2019-06-08T12:41:31.494Z,13.90
2019-06-08T12:44:20.401Z,16.05
2019-06-08T12:46:41.399Z,14.43
2019-06-08T12:49:12.701Z,14.30
2019-06-08T12:51:42.467Z,13.22
2019-06-08T12:54:12.754Z,15.93
2019-06-08T12:56:43.665Z,14.55
2019-06-08T12:59:17.003Z,17.27
2019-06-08T13:01:45.518Z,15.28
2019-06-08T13:04:15.864Z,15.35
2019-06-08T13:06:48.358Z,13.40
2019-06-08T13:09:19.319Z,13.75
2019-06-08T13:11:50.735Z,12.43
2019-06-08T13:14:20.840Z,11.18
2019-06-08T13:16:52.946Z,15.95
2019-06-08T13:19:21.989Z,14.50
2019-06-08T13:21:51.581Z,14.75
2019-06-08T13:24:21.226Z,9.15
2019-06-08T13:26:50.942Z,14.45
2019-06-08T13:29:22.229Z,14.65
2019-06-08T13:31:52.003Z,12.75
2019-06-08T13:34:24.024Z,9.35
2019-06-08T13:36:52.719Z,14.03
2019-06-08T13:39:23.141Z,10.32
2019-06-08T13:41:52.991Z,13.13
2019-06-08T13:44:22.656Z,11.25
2019-06-08T13:46:52.368Z,10.60
2019-06-08T13:49:26.843Z,10.60
2019-06-08T13:51:54.563Z,11.53
2019-06-08T13:54:24.397Z,11.43
2019-06-08T13:56:53.999Z,11.90
2019-06-08T13:59:27.793Z,13.55
2019-06-08T14:01:57.811Z,9.93
2019-06-08T14:04:27.265Z,11.83
2019-06-08T14:06:58.146Z,15.15
2019-06-08T14:09:31.389Z,12.95
2019-06-08T14:12:00.380Z,14.15
2019-06-08T14:14:32.868Z,13.13
2019-06-08T14:17:01.323Z,12.50
2019-06-08T14:19:31.620Z,12.82
2019-06-08T14:22:01.557Z,11.65
2019-06-08T14:24:34.528Z,11.00
2019-06-08T14:27:02.352Z,17.92
2019-06-08T14:29:32.000Z,14.85
2019-06-08T14:32:01.551Z,9.73
2019-06-08T14:34:32.995Z,10.43
2019-06-08T14:37:02.620Z,12.53
2019-06-08T14:39:32.344Z,15.48
2019-06-08T14:42:01.896Z,13.75
2019-06-08T14:44:33.879Z,10.23
2019-06-08T14:47:07.705Z,11.25
2019-06-08T14:49:38.444Z,11.55
2019-06-08T14:52:10.688Z,12.47
2019-06-08T14:54:39.258Z,13.50
2019-06-08T14:57:08.891Z,11.93
2019-06-08T14:59:38.580Z,11.43
2019-06-08T15:02:08.707Z,13.98
2019-06-08T15:04:40.073Z,10.65
2019-06-08T15:07:09.783Z,14.47
2019-06-08T15:09:39.318Z,12.35
2019-06-08T15:12:09.455Z,12.80
2019-06-08T15:14:39.084Z,14.45
2019-06-08T15:17:08.775Z,11.75
2019-06-08T15:19:38.439Z,10.65
2019-06-08T15:22:08.776Z,10.10
2019-06-08T15:24:39.268Z,10.50
2019-06-08T15:27:08.892Z,8.15
2019-06-08T15:29:38.422Z,9.48
2019-06-08T15:32:33.300Z,10.90
2019-06-08T15:35:00.430Z,7.70
2019-06-08T15:37:31.105Z,14.38
2019-06-08T15:40:01.226Z,11.15
2019-06-08T15:42:31.968Z,10.28
2019-06-08T15:45:02.028Z,13.88
2019-06-08T15:47:32.412Z,11.12
2019-06-08T15:50:02.128Z,11.57
2019-06-08T15:52:33.169Z,9.38
2019-06-08T15:55:03.228Z,7.90
2019-06-08T15:57:37.854Z,8.50
2019-06-08T16:00:09.625Z,12.80
2019-06-08T16:02:38.847Z,8.25
2019-06-08T16:05:08.598Z,7.62
2019-06-08T16:07:38.146Z,11.38
2019-06-08T16:10:08.174Z,12.15
2019-06-08T16:12:37.824Z,9.68
2019-06-08T16:15:07.821Z,8.43
2019-06-08T16:17:37.444Z,7.95
2019-06-08T16:20:07.338Z,18.10
2019-06-08T16:22:36.884Z,9.78
2019-06-08T16:25:07.759Z,7.35
2019-06-08T16:27:37.418Z,9.68
2019-06-08T16:30:09.575Z,8.43
2019-06-08T16:32:39.767Z,16.55
2019-06-08T16:35:10.104Z,8.50
2019-06-08T16:37:39.944Z,9.75
2019-06-08T16:40:12.264Z,10.53
2019-06-08T16:42:41.812Z,10.03
2019-06-08T16:45:12.555Z,12.45
2019-06-08T16:47:43.700Z,7.97
2019-06-08T16:50:24.165Z,10.85
2019-06-08T16:52:45.021Z,7.85
2019-06-08T16:55:14.722Z,10.72
2019-06-08T16:57:44.322Z,10.03
2019-06-08T17:00:31.623Z,8.48
2019-06-08T17:03:04.743Z,8.70
2019-06-08T17:05:35.261Z,10.13
2019-06-08T17:08:04.922Z,9.18
2019-06-08T17:10:34.662Z,12.73
2019-06-08T17:13:04.287Z,9.60
2019-06-08T17:15:34.128Z,9.53
2019-06-08T17:18:03.809Z,9.28
2019-06-08T17:20:34.055Z,8.38
2019-06-08T17:23:03.784Z,14.68
2019-06-08T17:25:34.421Z,9.25
2019-06-08T17:28:04.176Z,12.05
2019-06-08T17:30:35.482Z,15.80
2019-06-08T17:33:05.171Z,11.97
2019-06-08T17:35:35.599Z,12.05
2019-06-08T17:38:05.342Z,10.25
2019-06-08T17:40:35.822Z,10.58
2019-06-08T17:43:05.560Z,11.33
2019-06-08T17:45:36.276Z,9.53
2019-06-08T17:48:05.915Z,10.60
2019-06-08T17:50:36.543Z,11.00
2019-06-08T17:53:06.279Z,16.90
2019-06-08T17:55:35.819Z,11.25
2019-06-08T17:58:06.557Z,12.55
2019-06-08T18:00:37.391Z,8.53
2019-06-08T18:03:08.355Z,9.75
2019-06-08T18:05:41.964Z,10.72
2019-06-08T18:08:09.329Z,15.05
2019-06-08T18:10:40.336Z,11.00
2019-06-08T22:03:41.355Z,15.90
2019-06-08T22:06:11.055Z,16.17
2019-06-08T22:11:13.972Z,14.98
2019-06-08T22:13:43.599Z,19.90
2019-06-08T22:18:42.052Z,16.70
2019-06-08T22:21:18.215Z,18.73
2019-06-08T22:23:49.616Z,17.67
2019-06-08T22:26:21.447Z,17.05
2019-06-08T22:28:52.563Z,19.55
2019-06-08T22:31:23.267Z,16.70
2019-06-08T22:33:54.303Z,17.73
2019-06-08T22:36:27.583Z,15.48
2019-06-08T22:39:00.274Z,17.50
2019-06-08T22:41:28.510Z,19.55
2019-06-08T22:44:00.748Z,17.67
2019-06-08T22:46:33.819Z,17.48
2019-06-08T22:49:07.835Z,17.42
2019-06-08T22:51:38.314Z,19.95
2019-06-08T22:54:08.126Z,17.82
2019-06-08T22:56:38.066Z,17.73
2019-06-08T22:59:09.413Z,15.78
2019-06-08T23:01:39.229Z,20.17
2019-06-08T23:06:39.877Z,21.00
2019-06-08T23:09:09.837Z,14.53
2019-06-08T23:11:39.774Z,16.37
2019-06-08T23:14:13.468Z,18.75
2019-06-08T23:16:44.228Z,20.00
2019-06-08T23:19:14.121Z,21.02
2019-06-08T23:21:47.522Z,21.93
2019-06-08T23:24:23.475Z,19.70
2019-06-08T23:26:53.265Z,18.48
2019-06-08T23:29:27.372Z,22.37
2019-06-08T23:32:01.089Z,20.17
2019-06-08T23:34:30.075Z,22.15
2019-06-08T23:37:05.873Z,19.10
2019-06-08T23:39:37.503Z,19.77
2019-06-08T23:42:09.711Z,26.95
2019-06-08T23:44:41.413Z,19.67
2019-06-08T23:47:11.077Z,19.48
2019-06-08T23:49:40.893Z,17.92
2019-06-08T23:52:11.864Z,22.13
2019-06-08T23:54:43.255Z,20.70
2019-06-08T23:57:18.027Z,23.15
2019-06-08T23:59:49.209Z,19.25
